sensor_id;sensor_type;location;lat;lon;timestamp;temperature;humidity
54824;DHT22;40724;53.196;5.980;2023-02-17T00:47:40;8.80;99.90
54824;DHT22;40724;53.196;5.980;2023-02-17T00:50:06;9.00;99.90
54824;DHT22;40724;53.196;5.980;2023-02-17T00:52:32;9.00;99.90
54824;DHT22;40724;53.196;5.980;2023-02-17T00:54:58;9.00;99.90
54824;DHT22;40724;53.196;5.980;2023-02-17T00:57:23;8.90;99.90
54824;DHT22;40724;53.196;5.980;2023-02-17T00:59:50;9.00;99.90
54824;DHT22;40724;53.196;5.980;2023-02-17T01:02:17;8.90;99.90
54824;DHT22;40724;53.196;5.980;2023-02-17T01:04:42;8.90;99.90
54824;DHT22;40724;53.196;5.980;2023-02-17T01:07:08;8.90;99.90
54824;DHT22;40724;53.196;5.980;2023-02-17T01:09:34;8.90;99.90
54824;DHT22;40724;53.196;5.980;2023-02-17T01:12:00;8.90;99.90
54824;DHT22;40724;53.196;5.980;2023-02-17T01:14:25;8.90;99.90
54824;DHT22;40724;53.196;5.980;2023-02-17T01:16:51;8.90;99.90
54824;DHT22;40724;53.196;5.980;2023-02-17T01:19:18;8.90;99.90
54824;DHT22;40724;53.196;5.980;2023-02-17T01:21:44;8.90;99.90
54824;DHT22;40724;53.196;5.980;2023-02-17T01:24:11;8.90;99.90
54824;DHT22;40724;53.196;5.980;2023-02-17T01:26:38;8.90;99.90
54824;DHT22;40724;53.196;5.980;2023-02-17T01:29:05;8.90;99.90
54824;DHT22;40724;53.196;5.980;2023-02-17T01:31:31;8.90;99.90
54824;DHT22;40724;53.196;5.980;2023-02-17T01:34:00;8.90;99.90
54824;DHT22;40724;53.196;5.980;2023-02-17T01:36:26;8.90;99.90
54824;DHT22;40724;53.196;5.980;2023-02-17T01:38:53;8.90;99.90
54824;DHT22;40724;53.196;5.980;2023-02-17T01:41:22;8.80;99.90
54824;DHT22;40724;53.196;5.980;2023-02-17T01:44:21;8.80;99.90
54824;DHT22;40724;53.196;5.980;2023-02-17T01:46:49;8.80;99.90
54824;DHT22;40724;53.196;5.980;2023-02-17T01:52:39;8.80;99.90
54824;DHT22;40724;53.196;5.980;2023-02-17T01:54:46;8.80;99.90
54824;DHT22;40724;53.196;5.980;2023-02-17T01:57:17;8.80;99.90
54824;DHT22;40724;53.196;5.980;2023-02-17T01:59:44;8.80;99.90
54824;DHT22;40724;53.196;5.980;2023-02-17T02:02:10;8.80;99.90
54824;DHT22;40724;53.196;5.980;2023-02-17T02:04:38;8.90;99.90
54824;DHT22;40724;53.196;5.980;2023-02-17T02:07:10;8.90;99.90
54824;DHT22;40724;53.196;5.980;2023-02-17T02:09:53;8.90;99.90
54824;DHT22;40724;53.196;5.980;2023-02-17T02:12:24;8.90;99.90
54824;DHT22;40724;53.196;5.980;2023-02-17T02:14:51;8.90;99.90
54824;DHT22;40724;53.196;5.980;2023-02-17T02:34:19;9.00;99.90
54824;DHT22;40724;53.196;5.980;2023-02-17T02:36:48;9.00;99.90
54824;DHT22;40724;53.196;5.980;2023-02-17T02:39:20;9.00;99.90
54824;DHT22;40724;53.196;5.980;2023-02-17T02:41:54;9.00;99.90
54824;DHT22;40724;53.196;5.980;2023-02-17T02:44:22;9.00;99.90
54824;DHT22;40724;53.196;5.980;2023-02-17T02:47:05;9.00;99.90
54824;DHT22;40724;53.196;5.980;2023-02-17T02:49:34;9.00;99.90
54824;DHT22;40724;53.196;5.980;2023-02-17T02:52:04;9.00;99.90
54824;DHT22;40724;53.196;5.980;2023-02-17T02:57:35;9.00;99.90
54824;DHT22;40724;53.196;5.980;2023-02-17T03:02:58;9.00;99.90
54824;DHT22;40724;53.196;5.980;2023-02-17T03:08:07;9.00;99.90
54824;DHT22;40724;53.196;5.980;2023-02-17T03:10:34;9.00;99.90
54824;DHT22;40724;53.196;5.980;2023-02-17T03:13:02;9.00;99.90
54824;DHT22;40724;53.196;5.980;2023-02-17T03:15:31;9.00;99.90
54824;DHT22;40724;53.196;5.980;2023-02-17T03:17:59;9.00;99.90
54824;DHT22;40724;53.196;5.980;2023-02-17T03:20:29;9.00;99.90
54824;DHT22;40724;53.196;5.980;2023-02-17T03:22:55;9.00;99.90
54824;DHT22;40724;53.196;5.980;2023-02-17T03:25:21;9.00;99.90
54824;DHT22;40724;53.196;5.980;2023-02-17T03:27:47;9.00;99.90
54824;DHT22;40724;53.196;5.980;2023-02-17T03:30:13;9.00;99.90
54824;DHT22;40724;53.196;5.980;2023-02-17T03:32:40;9.00;99.90
54824;DHT22;40724;53.196;5.980;2023-02-17T03:35:06;9.00;99.90
54824;DHT22;40724;53.196;5.980;2023-02-17T03:37:32;9.00;99.90
54824;DHT22;40724;53.196;5.980;2023-02-17T03:39:58;8.90;99.90
54824;DHT22;40724;53.196;5.980;2023-02-17T03:42:23;8.90;99.90
54824;DHT22;40724;53.196;5.980;2023-02-17T03:44:49;8.90;99.90
54824;DHT22;40724;53.196;5.980;2023-02-17T03:47:15;8.90;99.90
54824;DHT22;40724;53.196;5.980;2023-02-17T03:49:41;8.90;99.90
54824;DHT22;40724;53.196;5.980;2023-02-17T03:52:06;8.90;99.90
54824;DHT22;40724;53.196;5.980;2023-02-17T03:54:32;8.90;99.90
54824;DHT22;40724;53.196;5.980;2023-02-17T03:56:58;8.90;99.90
54824;DHT22;40724;53.196;5.980;2023-02-17T03:59:26;8.90;99.90
54824;DHT22;40724;53.196;5.980;2023-02-17T04:01:52;8.90;99.90
54824;DHT22;40724;53.196;5.980;2023-02-17T04:04:18;8.80;99.90
54824;DHT22;40724;53.196;5.980;2023-02-17T04:06:44;8.90;99.90
54824;DHT22;40724;53.196;5.980;2023-02-17T04:09:09;8.90;99.90
54824;DHT22;40724;53.196;5.980;2023-02-17T04:11:35;8.80;99.90
54824;DHT22;40724;53.196;5.980;2023-02-17T04:14:01;8.80;99.90
54824;DHT22;40724;53.196;5.980;2023-02-17T04:16:27;8.80;99.90
54824;DHT22;40724;53.196;5.980;2023-02-17T04:18:52;8.80;99.90
54824;DHT22;40724;53.196;5.980;2023-02-17T04:21:18;8.70;99.90
54824;DHT22;40724;53.196;5.980;2023-02-17T04:23:44;8.70;99.90
54824;DHT22;40724;53.196;5.980;2023-02-17T04:26:10;8.70;99.90
54824;DHT22;40724;53.196;5.980;2023-02-17T04:28:39;8.70;99.90
54824;DHT22;40724;53.196;5.980;2023-02-17T04:31:06;8.70;99.90
54824;DHT22;40724;53.196;5.980;2023-02-17T04:33:32;8.70;99.90
54824;DHT22;40724;53.196;5.980;2023-02-17T04:35:57;8.70;99.90
54824;DHT22;40724;53.196;5.980;2023-02-17T04:38:27;8.70;99.90
54824;DHT22;40724;53.196;5.980;2023-02-17T04:40:54;8.70;99.90
54824;DHT22;40724;53.196;5.980;2023-02-17T04:43:24;8.70;99.90
54824;DHT22;40724;53.196;5.980;2023-02-17T04:45:50;8.70;99.90
54824;DHT22;40724;53.196;5.980;2023-02-17T04:48:16;8.70;99.90
54824;DHT22;40724;53.196;5.980;2023-02-17T04:50:42;8.70;99.90
54824;DHT22;40724;53.196;5.980;2023-02-17T04:53:08;8.70;99.90
54824;DHT22;40724;53.196;5.980;2023-02-17T04:55:34;8.70;99.90
54824;DHT22;40724;53.196;5.980;2023-02-17T04:57:59;8.70;99.90
54824;DHT22;40724;53.196;5.980;2023-02-17T05:00:25;8.70;99.90
54824;DHT22;40724;53.196;5.980;2023-02-17T05:02:51;8.80;99.90
54824;DHT22;40724;53.196;5.980;2023-02-17T05:05:17;8.70;99.90
54824;DHT22;40724;53.196;5.980;2023-02-17T05:07:44;8.70;99.90
54824;DHT22;40724;53.196;5.980;2023-02-17T05:10:11;8.80;99.90
54824;DHT22;40724;53.196;5.980;2023-02-17T05:12:37;8.80;99.90
54824;DHT22;40724;53.196;5.980;2023-02-17T05:15:05;8.80;99.90
54824;DHT22;40724;53.196;5.980;2023-02-17T05:17:31;8.80;99.90
54824;DHT22;40724;53.196;5.980;2023-02-17T05:19:57;8.80;99.90
54824;DHT22;40724;53.196;5.980;2023-02-17T05:22:23;8.80;99.90
54824;DHT22;40724;53.196;5.980;2023-02-17T05:24:49;8.80;99.90
54824;DHT22;40724;53.196;5.980;2023-02-17T05:27:15;8.90;99.90
54824;DHT22;40724;53.196;5.980;2023-02-17T05:29:41;8.80;99.90
54824;DHT22;40724;53.196;5.980;2023-02-17T05:32:07;8.90;99.90
54824;DHT22;40724;53.196;5.980;2023-02-17T05:34:33;8.90;99.90
54824;DHT22;40724;53.196;5.980;2023-02-17T05:36:58;8.90;99.90
54824;DHT22;40724;53.196;5.980;2023-02-17T05:39:25;8.90;99.90
54824;DHT22;40724;53.196;5.980;2023-02-17T05:41:50;8.90;99.90
54824;DHT22;40724;53.196;5.980;2023-02-17T05:44:16;8.90;99.90
54824;DHT22;40724;53.196;5.980;2023-02-17T05:46:42;8.90;99.90
54824;DHT22;40724;53.196;5.980;2023-02-17T05:49:08;8.90;99.90
54824;DHT22;40724;53.196;5.980;2023-02-17T05:51:34;8.90;99.90
54824;DHT22;40724;53.196;5.980;2023-02-17T05:54:00;9.00;99.90
54824;DHT22;40724;53.196;5.980;2023-02-17T05:56:25;8.90;99.90
54824;DHT22;40724;53.196;5.980;2023-02-17T05:58:51;8.90;99.90
54824;DHT22;40724;53.196;5.980;2023-02-17T06:01:17;8.90;99.90
54824;DHT22;40724;53.196;5.980;2023-02-17T06:03:43;9.00;99.90
54824;DHT22;40724;53.196;5.980;2023-02-17T06:06:08;9.00;99.90
54824;DHT22;40724;53.196;5.980;2023-02-17T06:08:34;8.90;99.90
54824;DHT22;40724;53.196;5.980;2023-02-17T06:11:00;9.00;99.90
54824;DHT22;40724;53.196;5.980;2023-02-17T06:13:26;9.00;99.90
54824;DHT22;40724;53.196;5.980;2023-02-17T06:15:52;9.00;99.90
54824;DHT22;40724;53.196;5.980;2023-02-17T06:18:18;9.00;99.90
54824;DHT22;40724;53.196;5.980;2023-02-17T06:20:44;9.00;99.90
54824;DHT22;40724;53.196;5.980;2023-02-17T06:23:10;9.00;99.90
54824;DHT22;40724;53.196;5.980;2023-02-17T06:25:36;9.00;99.90
54824;DHT22;40724;53.196;5.980;2023-02-17T06:28:02;9.10;99.90
54824;DHT22;40724;53.196;5.980;2023-02-17T06:30:28;9.10;99.90
54824;DHT22;40724;53.196;5.980;2023-02-17T06:32:54;9.10;99.90
54824;DHT22;40724;53.196;5.980;2023-02-17T06:35:19;9.10;99.90
54824;DHT22;40724;53.196;5.980;2023-02-17T06:37:45;9.10;99.90
54824;DHT22;40724;53.196;5.980;2023-02-17T06:40:11;9.20;99.90
54824;DHT22;40724;53.196;5.980;2023-02-17T06:42:37;9.10;99.90
54824;DHT22;40724;53.196;5.980;2023-02-17T06:45:03;9.10;99.90
54824;DHT22;40724;53.196;5.980;2023-02-17T06:47:31;9.10;99.90
54824;DHT22;40724;53.196;5.980;2023-02-17T06:49:57;9.20;99.90
54824;DHT22;40724;53.196;5.980;2023-02-17T06:52:23;9.20;99.90
54824;DHT22;40724;53.196;5.980;2023-02-17T06:54:49;9.20;99.90
54824;DHT22;40724;53.196;5.980;2023-02-17T06:57:15;9.20;99.90
54824;DHT22;40724;53.196;5.980;2023-02-17T07:04:38;9.20;99.90
54824;DHT22;40724;53.196;5.980;2023-02-17T07:21:42;9.30;99.90
54824;DHT22;40724;53.196;5.980;2023-02-17T08:01:10;9.40;99.90
54824;DHT22;40724;53.196;5.980;2023-02-17T08:03:36;9.60;99.90
54824;DHT22;40724;53.196;5.980;2023-02-17T08:06:02;9.60;99.90
54824;DHT22;40724;53.196;5.980;2023-02-17T08:08:28;9.60;99.90
54824;DHT22;40724;53.196;5.980;2023-02-17T08:11:14;9.70;99.90
54824;DHT22;40724;53.196;5.980;2023-02-17T08:14:00;9.60;99.90
54824;DHT22;40724;53.196;5.980;2023-02-17T08:16:25;9.70;99.90
54824;DHT22;40724;53.196;5.980;2023-02-17T08:23:47;9.70;99.90
54824;DHT22;40724;53.196;5.980;2023-02-17T08:28:40;9.80;99.90
54824;DHT22;40724;53.196;5.980;2023-02-17T08:31:05;9.80;99.90
54824;DHT22;40724;53.196;5.980;2023-02-17T08:40:59;9.80;99.90
54824;DHT22;40724;53.196;5.980;2023-02-17T08:55:39;9.90;99.90
54824;DHT22;40724;53.196;5.980;2023-02-17T09:32:16;10.00;99.90
54824;DHT22;40724;53.196;5.980;2023-02-17T09:34:41;10.10;99.90
54824;DHT22;40724;53.196;5.980;2023-02-17T09:37:20;10.20;99.90
54824;DHT22;40724;53.196;5.980;2023-02-17T09:39:47;10.10;99.90
54824;DHT22;40724;53.196;5.980;2023-02-17T09:42:18;10.20;99.90
54824;DHT22;40724;53.196;5.980;2023-02-17T09:44:49;10.20;99.90
54824;DHT22;40724;53.196;5.980;2023-02-17T09:47:33;10.20;99.90
54824;DHT22;40724;53.196;5.980;2023-02-17T09:50:09;10.20;99.90
54824;DHT22;40724;53.196;5.980;2023-02-17T09:52:49;10.20;99.90
54824;DHT22;40724;53.196;5.980;2023-02-17T12:10:31;10.90;99.90
54824;DHT22;40724;53.196;5.980;2023-02-17T12:13:38;10.90;99.90
54824;DHT22;40724;53.196;5.980;2023-02-17T12:42:29;11.10;99.90
54824;DHT22;40724;53.196;5.980;2023-02-17T12:45:01;11.20;99.90
54824;DHT22;40724;53.196;5.980;2023-02-17T12:50:22;11.20;99.90
54824;DHT22;40724;53.196;5.980;2023-02-17T12:52:52;11.20;99.90
54824;DHT22;40724;53.196;5.980;2023-02-17T12:55:21;11.20;99.90
54824;DHT22;40724;53.196;5.980;2023-02-17T13:00:28;11.20;99.90
54824;DHT22;40724;53.196;5.980;2023-02-17T13:02:59;11.20;99.90
54824;DHT22;40724;53.196;5.980;2023-02-17T15:50:44;11.30;99.90
54824;DHT22;40724;53.196;5.980;2023-02-17T15:53:09;10.40;99.90
54824;DHT22;40724;53.196;5.980;2023-02-17T15:55:36;10.40;99.90
54824;DHT22;40724;53.196;5.980;2023-02-17T15:58:04;10.30;99.90
54824;DHT22;40724;53.196;5.980;2023-02-17T16:00:33;10.20;99.90
54824;DHT22;40724;53.196;5.980;2023-02-17T16:02:59;10.20;99.90
54824;DHT22;40724;53.196;5.980;2023-02-17T16:05:27;10.20;99.90
54824;DHT22;40724;53.196;5.980;2023-02-17T16:07:53;10.10;99.90
54824;DHT22;40724;53.196;5.980;2023-02-17T16:10:21;10.10;99.90
54824;DHT22;40724;53.196;5.980;2023-02-17T16:12:49;10.10;99.90
54824;DHT22;40724;53.196;5.980;2023-02-17T16:15:21;10.00;99.90
54824;DHT22;40724;53.196;5.980;2023-02-17T16:17:48;9.90;99.90
